sensor_id;sensor_type;location;lat;lon;timestamp;pressure;altitude;pressure_sealevel;temperature;humidity
69402;BME280;56589;51.992;5.924;2022-10-31T00:02:23;101515.38;;;12.90;76.89
69402;BME280;56589;51.992;5.924;2022-10-31T00:04:49;101522.56;;;12.88;76.95
69402;BME280;56589;51.992;5.924;2022-10-31T00:07:17;101518.22;;;12.87;77.33
69402;BME280;56589;51.992;5.924;2022-10-31T00:09:43;101519.25;;;12.85;77.40
69402;BME280;56589;51.992;5.924;2022-10-31T00:12:09;101521.25;;;12.81;77.30
69402;BME280;56589;51.992;5.924;2022-10-31T00:14:35;101523.09;;;12.79;77.25
69402;BME280;56589;51.992;5.924;2022-10-31T00:17:00;101516.44;;;12.74;77.31
69402;BME280;56589;51.992;5.924;2022-10-31T00:19:27;101514.00;;;12.70;77.50
69402;BME280;56589;51.992;5.924;2022-10-31T00:21:53;101517.66;;;12.68;77.84
69402;BME280;56589;51.992;5.924;2022-10-31T00:24:21;101517.75;;;12.66;77.78
69402;BME280;56589;51.992;5.924;2022-10-31T00:26:47;101519.53;;;12.66;77.63
69402;BME280;56589;51.992;5.924;2022-10-31T00:29:13;101519.63;;;12.64;77.90
69402;BME280;56589;51.992;5.924;2022-10-31T00:31:39;101518.88;;;12.62;77.88
69402;BME280;56589;51.992;5.924;2022-10-31T00:34:05;101520.75;;;12.60;78.13
69402;BME280;56589;51.992;5.924;2022-10-31T00:36:31;101524.34;;;12.59;77.92
69402;BME280;56589;51.992;5.924;2022-10-31T00:38:58;101525.28;;;12.58;77.94
69402;BME280;56589;51.992;5.924;2022-10-31T00:41:26;101519.16;;;12.58;77.83
69402;BME280;56589;51.992;5.924;2022-10-31T00:43:52;101521.81;;;12.58;78.09
69402;BME280;56589;51.992;5.924;2022-10-31T00:46:18;101518.38;;;12.56;77.96
69402;BME280;56589;51.992;5.924;2022-10-31T00:48:44;101517.66;;;12.54;78.15
69402;BME280;56589;51.992;5.924;2022-10-31T00:51:10;101526.41;;;12.54;78.25
69402;BME280;56589;51.992;5.924;2022-10-31T00:53:36;101517.84;;;12.51;78.03
69402;BME280;56589;51.992;5.924;2022-10-31T00:56:02;101524.03;;;12.50;78.03
69402;BME280;56589;51.992;5.924;2022-10-31T00:58:31;101525.81;;;12.49;78.09
69402;BME280;56589;51.992;5.924;2022-10-31T01:00:57;101522.53;;;12.46;77.85
69402;BME280;56589;51.992;5.924;2022-10-31T01:03:24;101528.75;;;12.44;77.83
69402;BME280;56589;51.992;5.924;2022-10-31T01:06:00;101530.50;;;12.44;78.08
69402;BME280;56589;51.992;5.924;2022-10-31T01:08:28;101529.19;;;12.37;78.40
69402;BME280;56589;51.992;5.924;2022-10-31T01:11:05;101532.03;;;12.34;78.21
69402;BME280;56589;51.992;5.924;2022-10-31T01:13:35;101526.91;;;12.31;78.53
69402;BME280;56589;51.992;5.924;2022-10-31T01:16:02;101529.66;;;12.29;78.57
69402;BME280;56589;51.992;5.924;2022-10-31T01:18:30;101520.91;;;12.29;78.50
69402;BME280;56589;51.992;5.924;2022-10-31T01:21:00;101521.75;;;12.29;78.23
69402;BME280;56589;51.992;5.924;2022-10-31T01:23:27;101521.94;;;12.26;78.13
69402;BME280;56589;51.992;5.924;2022-10-31T01:26:15;101521.00;;;12.27;78.28
69402;BME280;56589;51.992;5.924;2022-10-31T01:28:47;101526.34;;;12.26;78.52
69402;BME280;56589;51.992;5.924;2022-10-31T01:31:16;101529.91;;;12.25;78.43
69402;BME280;56589;51.992;5.924;2022-10-31T01:33:44;101525.59;;;12.24;78.44
69402;BME280;56589;51.992;5.924;2022-10-31T01:36:15;101526.44;;;12.24;78.31
69402;BME280;56589;51.992;5.924;2022-10-31T01:38:42;101527.38;;;12.23;78.64
69402;BME280;56589;51.992;5.924;2022-10-31T01:41:10;101535.28;;;12.23;78.64
69402;BME280;56589;51.992;5.924;2022-10-31T01:43:49;101520.31;;;12.24;78.85
69402;BME280;56589;51.992;5.924;2022-10-31T01:46:20;101516.84;;;12.23;78.57
69402;BME280;56589;51.992;5.924;2022-10-31T01:48:50;101504.72;;;12.21;78.27
69402;BME280;56589;51.992;5.924;2022-10-31T01:51:21;101504.88;;;12.17;78.56
69402;BME280;56589;51.992;5.924;2022-10-31T01:53:51;101499.13;;;12.11;78.78
69402;BME280;56589;51.992;5.924;2022-10-31T01:56:21;101497.94;;;12.01;78.47
69402;BME280;56589;51.992;5.924;2022-10-31T01:58:51;101505.28;;;11.96;78.62
69402;BME280;56589;51.992;5.924;2022-10-31T02:01:21;101499.44;;;11.90;78.45
69402;BME280;56589;51.992;5.924;2022-10-31T02:03:48;101506.75;;;11.85;79.03
69402;BME280;56589;51.992;5.924;2022-10-31T02:06:21;101512.19;;;11.82;78.71
69402;BME280;56589;51.992;5.924;2022-10-31T02:08:57;101514.06;;;11.80;79.18
69402;BME280;56589;51.992;5.924;2022-10-31T02:11:27;101511.44;;;11.80;79.18
69402;BME280;56589;51.992;5.924;2022-10-31T02:13:58;101507.84;;;11.81;79.37
69402;BME280;56589;51.992;5.924;2022-10-31T02:16:26;101507.00;;;11.81;79.13
69402;BME280;56589;51.992;5.924;2022-10-31T02:18:53;101507.09;;;11.79;79.00
69402;BME280;56589;51.992;5.924;2022-10-31T02:21:24;101511.53;;;11.79;79.25
69402;BME280;56589;51.992;5.924;2022-10-31T02:27:18;101511.03;;;11.72;79.48
69402;BME280;56589;51.992;5.924;2022-10-31T02:30:11;101511.13;;;11.71;79.36
69402;BME280;56589;51.992;5.924;2022-10-31T02:32:50;101514.59;;;11.71;79.19
69402;BME280;56589;51.992;5.924;2022-10-31T02:35:31;101506.72;;;11.71;79.24
69402;BME280;56589;51.992;5.924;2022-10-31T02:38:25;101513.66;;;11.72;79.54
69402;BME280;56589;51.992;5.924;2022-10-31T02:41:05;101515.50;;;11.70;79.49
69402;BME280;56589;51.992;5.924;2022-10-31T02:43:39;101506.88;;;11.68;79.30
69402;BME280;56589;51.992;5.924;2022-10-31T02:46:19;101514.00;;;11.66;79.51
69402;BME280;56589;51.992;5.924;2022-10-31T02:48:58;101514.16;;;11.63;79.11
69402;BME280;56589;51.992;5.924;2022-10-31T02:51:31;101510.88;;;11.59;79.26
69402;BME280;56589;51.992;5.924;2022-10-31T02:53:57;101511.13;;;11.55;79.11
69402;BME280;56589;51.992;5.924;2022-10-31T02:56:23;101515.66;;;11.53;79.36
69402;BME280;56589;51.992;5.924;2022-10-31T02:58:51;101511.38;;;11.50;78.96
69402;BME280;56589;51.992;5.924;2022-10-31T03:01:34;101512.56;;;11.45;79.35
69402;BME280;56589;51.992;5.924;2022-10-31T03:04:28;101512.16;;;11.36;79.46
69402;BME280;56589;51.992;5.924;2022-10-31T03:07:08;101506.50;;;11.28;79.48
69402;BME280;56589;51.992;5.924;2022-10-31T03:09:45;101505.91;;;11.23;79.72
69402;BME280;56589;51.992;5.924;2022-10-31T03:12:24;101510.56;;;11.18;79.80
69402;BME280;56589;51.992;5.924;2022-10-31T03:15:02;101515.13;;;11.15;79.47
69402;BME280;56589;51.992;5.924;2022-10-31T03:17:41;101500.63;;;11.07;79.67
69402;BME280;56589;51.992;5.924;2022-10-31T03:20:22;101503.44;;;11.04;80.21
69402;BME280;56589;51.992;5.924;2022-10-31T03:22:52;101498.31;;;11.01;80.42
69402;BME280;56589;51.992;5.924;2022-10-31T03:25:22;101503.59;;;11.01;80.34
69402;BME280;56589;51.992;5.924;2022-10-31T03:27:49;101502.84;;;10.99;80.50
69402;BME280;56589;51.992;5.924;2022-10-31T03:30:17;101508.19;;;10.98;80.47
69402;BME280;56589;51.992;5.924;2022-10-31T03:32:45;101504.75;;;10.96;80.56
69402;BME280;56589;51.992;5.924;2022-10-31T03:37:59;101500.63;;;10.92;80.07
69402;BME280;56589;51.992;5.924;2022-10-31T03:40:27;101501.63;;;10.89;79.89
69402;BME280;56589;51.992;5.924;2022-10-31T03:42:57;101513.91;;;10.89;80.05
69402;BME280;56589;51.992;5.924;2022-10-31T03:45:31;101514.16;;;10.84;80.19
69402;BME280;56589;51.992;5.924;2022-10-31T03:48:01;101504.66;;;10.81;80.02
69402;BME280;56589;51.992;5.924;2022-10-31T03:50:30;101508.28;;;10.79;79.86
69402;BME280;56589;51.992;5.924;2022-10-31T03:53:09;101516.22;;;10.77;79.75
69402;BME280;56589;51.992;5.924;2022-10-31T03:55:45;101510.31;;;10.74;80.13
69402;BME280;56589;51.992;5.924;2022-10-31T03:58:20;101521.03;;;10.69;80.00
69402;BME280;56589;51.992;5.924;2022-10-31T04:00:52;101516.03;;;10.65;80.37
69402;BME280;56589;51.992;5.924;2022-10-31T04:03:23;101520.53;;;10.63;80.36
69402;BME280;56589;51.992;5.924;2022-10-31T04:05:55;101513.81;;;10.57;80.26
69402;BME280;56589;51.992;5.924;2022-10-31T04:08:30;101517.47;;;10.54;80.32
69402;BME280;56589;51.992;5.924;2022-10-31T04:11:00;101521.16;;;10.50;81.15
69402;BME280;56589;51.992;5.924;2022-10-31T04:13:31;101509.97;;;10.47;81.18
69402;BME280;56589;51.992;5.924;2022-10-31T04:16:01;101510.03;;;10.45;81.16
69402;BME280;56589;51.992;5.924;2022-10-31T04:18:27;101511.81;;;10.45;80.95
69402;BME280;56589;51.992;5.924;2022-10-31T04:21:00;101514.53;;;10.43;81.16
69402;BME280;56589;51.992;5.924;2022-10-31T04:23:30;101508.44;;;10.43;81.06
69402;BME280;56589;51.992;5.924;2022-10-31T04:25:56;101514.63;;;10.42;81.33
69402;BME280;56589;51.992;5.924;2022-10-31T04:28:22;101513.75;;;10.41;81.48
69402;BME280;56589;51.992;5.924;2022-10-31T04:30:48;101505.03;;;10.41;81.69
69402;BME280;56589;51.992;5.924;2022-10-31T04:33:14;101497.16;;;10.41;81.62
69402;BME280;56589;51.992;5.924;2022-10-31T04:35:40;101492.00;;;10.39;81.79
69402;BME280;56589;51.992;5.924;2022-10-31T04:38:06;101497.25;;;10.39;82.20
69402;BME280;56589;51.992;5.924;2022-10-31T04:40:35;101502.56;;;10.38;81.81
69402;BME280;56589;51.992;5.924;2022-10-31T04:43:00;101506.81;;;10.40;82.39
69402;BME280;56589;51.992;5.924;2022-10-31T04:45:26;101501.66;;;10.39;82.32
69402;BME280;56589;51.992;5.924;2022-10-31T04:47:52;101496.31;;;10.40;82.21
69402;BME280;56589;51.992;5.924;2022-10-31T04:50:18;101502.41;;;10.41;82.07
69402;BME280;56589;51.992;5.924;2022-10-31T04:52:45;101505.88;;;10.41;82.01
69402;BME280;56589;51.992;5.924;2022-10-31T04:55:12;101506.75;;;10.42;82.16
69402;BME280;56589;51.992;5.924;2022-10-31T04:57:46;101499.63;;;10.44;81.86
69402;BME280;56589;51.992;5.924;2022-10-31T05:00:16;101501.31;;;10.45;82.00
69402;BME280;56589;51.992;5.924;2022-10-31T05:02:45;101503.94;;;10.45;81.99
69402;BME280;56589;51.992;5.924;2022-10-31T05:05:12;101505.63;;;10.46;81.71
69402;BME280;56589;51.992;5.924;2022-10-31T05:07:39;101502.16;;;10.45;81.79
69402;BME280;56589;51.992;5.924;2022-10-31T05:10:06;101497.09;;;10.42;81.69
69402;BME280;56589;51.992;5.924;2022-10-31T05:12:32;101498.09;;;10.40;81.31
69402;BME280;56589;51.992;5.924;2022-10-31T05:15:01;101499.03;;;10.39;81.47
69402;BME280;56589;51.992;5.924;2022-10-31T05:17:27;101505.19;;;10.38;81.71
69402;BME280;56589;51.992;5.924;2022-10-31T05:19:53;101502.66;;;10.36;81.64
69402;BME280;56589;51.992;5.924;2022-10-31T05:22:19;101496.56;;;10.36;81.87
69402;BME280;56589;51.992;5.924;2022-10-31T05:24:44;101492.16;;;10.36;81.83
69402;BME280;56589;51.992;5.924;2022-10-31T05:27:10;101483.34;;;10.37;82.44
69402;BME280;56589;51.992;5.924;2022-10-31T05:29:36;101483.28;;;10.39;82.56
69402;BME280;56589;51.992;5.924;2022-10-31T05:32:04;101474.47;;;10.40;82.50
69402;BME280;56589;51.992;5.924;2022-10-31T05:34:30;101471.69;;;10.43;82.77
69402;BME280;56589;51.992;5.924;2022-10-31T05:36:56;101468.97;;;10.44;82.96
69402;BME280;56589;51.992;5.924;2022-10-31T05:39:21;101466.97;;;10.49;82.85
69402;BME280;56589;51.992;5.924;2022-10-31T05:41:47;101473.66;;;10.55;82.82
69402;BME280;56589;51.992;5.924;2022-10-31T05:44:13;101476.81;;;10.62;83.22
69402;BME280;56589;51.992;5.924;2022-10-31T05:46:39;101474.84;;;10.65;83.28
69402;BME280;56589;51.992;5.924;2022-10-31T05:49:07;101475.47;;;10.70;83.04
69402;BME280;56589;51.992;5.924;2022-10-31T05:51:33;101469.97;;;10.75;83.01
69402;BME280;56589;51.992;5.924;2022-10-31T05:53:58;101487.19;;;10.80;83.35
69402;BME280;56589;51.992;5.924;2022-10-31T05:56:24;101473.91;;;10.83;82.68
69402;BME280;56589;51.992;5.924;2022-10-31T05:58:50;101481.63;;;10.87;82.53
69402;BME280;56589;51.992;5.924;2022-10-31T06:01:16;101485.00;;;10.89;82.58
69402;BME280;56589;51.992;5.924;2022-10-31T06:03:41;101482.28;;;10.90;82.78
69402;BME280;56589;51.992;5.924;2022-10-31T06:06:10;101482.22;;;10.92;82.59
69402;BME280;56589;51.992;5.924;2022-10-31T06:08:36;101484.78;;;10.93;82.67
69402;BME280;56589;51.992;5.924;2022-10-31T06:11:02;101480.34;;;10.94;82.31
69402;BME280;56589;51.992;5.924;2022-10-31T06:13:27;101481.31;;;10.93;81.98
69402;BME280;56589;51.992;5.924;2022-10-31T06:15:53;101482.28;;;10.90;82.13
69402;BME280;56589;51.992;5.924;2022-10-31T06:18:19;101479.00;;;10.87;82.16
69402;BME280;56589;51.992;5.924;2022-10-31T06:20:45;101481.78;;;10.83;82.00
69402;BME280;56589;51.992;5.924;2022-10-31T06:23:13;101477.63;;;10.79;81.76
69402;BME280;56589;51.992;5.924;2022-10-31T06:25:41;101471.66;;;10.76;81.47
69402;BME280;56589;51.992;5.924;2022-10-31T06:28:07;101472.75;;;10.72;81.62
69402;BME280;56589;51.992;5.924;2022-10-31T06:30:33;101471.31;;;10.66;81.44
69402;BME280;56589;51.992;5.924;2022-10-31T06:33:03;101479.34;;;10.63;81.38
69402;BME280;56589;51.992;5.924;2022-10-31T06:35:29;101465.63;;;10.58;81.84
69402;BME280;56589;51.992;5.924;2022-10-31T06:37:55;101475.34;;;10.56;81.88
69402;BME280;56589;51.992;5.924;2022-10-31T06:40:23;101478.00;;;10.56;82.29
69402;BME280;56589;51.992;5.924;2022-10-31T06:42:56;101475.44;;;10.54;82.44
69402;BME280;56589;51.992;5.924;2022-10-31T06:45:22;101486.00;;;10.53;82.17
69402;BME280;56589;51.992;5.924;2022-10-31T06:47:50;101487.78;;;10.52;82.41
69402;BME280;56589;51.992;5.924;2022-10-31T06:50:17;101484.31;;;10.52;82.13
69402;BME280;56589;51.992;5.924;2022-10-31T06:52:42;101483.31;;;10.54;82.49
69402;BME280;56589;51.992;5.924;2022-10-31T06:55:08;101482.47;;;10.54;82.58
69402;BME280;56589;51.992;5.924;2022-10-31T06:57:36;101490.41;;;10.52;82.75
69402;BME280;56589;51.992;5.924;2022-10-31T07:00:03;101485.09;;;10.54;83.20
69402;BME280;56589;51.992;5.924;2022-10-31T07:02:29;101489.41;;;10.55;82.90
69402;BME280;56589;51.992;5.924;2022-10-31T07:04:55;101483.06;;;10.59;83.07
69402;BME280;56589;51.992;5.924;2022-10-31T07:07:20;101486.47;;;10.61;83.29
69402;BME280;56589;51.992;5.924;2022-10-31T07:09:46;101482.06;;;10.62;82.96
69402;BME280;56589;51.992;5.924;2022-10-31T07:12:13;101492.38;;;10.65;83.19
69402;BME280;56589;51.992;5.924;2022-10-31T07:14:43;101492.16;;;10.69;83.15
69402;BME280;56589;51.992;5.924;2022-10-31T07:17:08;101478.94;;;10.71;82.94
69402;BME280;56589;51.992;5.924;2022-10-31T07:19:34;101477.00;;;10.74;83.19
69402;BME280;56589;51.992;5.924;2022-10-31T07:22:00;101489.03;;;10.78;82.98
69402;BME280;56589;51.992;5.924;2022-10-31T07:24:26;101491.44;;;10.83;83.17
69402;BME280;56589;51.992;5.924;2022-10-31T07:26:51;101489.34;;;10.90;82.84
69402;BME280;56589;51.992;5.924;2022-10-31T07:29:17;101491.63;;;10.96;82.95
69402;BME280;56589;51.992;5.924;2022-10-31T07:31:48;101488.75;;;11.00;83.03
69402;BME280;56589;51.992;5.924;2022-10-31T07:34:16;101491.13;;;11.05;83.15
69402;BME280;56589;51.992;5.924;2022-10-31T07:36:41;101482.91;;;11.11;83.79
69402;BME280;56589;51.992;5.924;2022-10-31T07:39:07;101486.91;;;11.18;83.75
69402;BME280;56589;51.992;5.924;2022-10-31T07:41:33;101483.09;;;11.24;83.79
69402;BME280;56589;51.992;5.924;2022-10-31T07:43:59;101484.53;;;11.29;83.19
69402;BME280;56589;51.992;5.924;2022-10-31T07:46:24;101487.81;;;11.33;83.20
69402;BME280;56589;51.992;5.924;2022-10-31T07:48:53;101484.09;;;11.37;83.35
69402;BME280;56589;51.992;5.924;2022-10-31T07:51:18;101495.09;;;11.44;83.24
69402;BME280;56589;51.992;5.924;2022-10-31T07:53:44;101485.19;;;11.49;83.66
69402;BME280;56589;51.992;5.924;2022-10-31T07:56:13;101493.56;;;11.55;83.34
69402;BME280;56589;51.992;5.924;2022-10-31T07:58:39;101492.47;;;11.59;83.48
69402;BME280;56589;51.992;5.924;2022-10-31T08:01:05;101493.13;;;11.63;83.84
69402;BME280;56589;51.992;5.924;2022-10-31T08:03:31;101488.47;;;11.68;83.56
69402;BME280;56589;51.992;5.924;2022-10-31T08:05:59;101493.38;;;11.74;83.65
69402;BME280;56589;51.992;5.924;2022-10-31T08:08:26;101488.59;;;11.81;83.70
69402;BME280;56589;51.992;5.924;2022-10-31T08:10:52;101492.66;;;11.86;83.59
69402;BME280;56589;51.992;5.924;2022-10-31T08:13:17;101500.19;;;11.93;83.41
69402;BME280;56589;51.992;5.924;2022-10-31T08:15:43;101507.25;;;11.92;83.58
69402;BME280;56589;51.992;5.924;2022-10-31T08:18:12;101513.09;;;11.97;83.86
69402;BME280;56589;51.992;5.924;2022-10-31T08:20:39;101513.94;;;11.98;83.33
69402;BME280;56589;51.992;5.924;2022-10-31T08:23:09;101516.38;;;12.01;83.68
69402;BME280;56589;51.992;5.924;2022-10-31T08:25:36;101516.13;;;12.05;83.33
69402;BME280;56589;51.992;5.924;2022-10-31T08:28:03;101515.00;;;12.09;83.30
69402;BME280;56589;51.992;5.924;2022-10-31T08:30:31;101519.22;;;12.12;83.60
69402;BME280;56589;51.992;5.924;2022-10-31T08:33:02;101511.16;;;12.15;83.61
69402;BME280;56589;51.992;5.924;2022-10-31T08:35:29;101517.94;;;12.19;83.32
69402;BME280;56589;51.992;5.924;2022-10-31T08:37:56;101505.72;;;12.18;82.90
69402;BME280;56589;51.992;5.924;2022-10-31T08:40:26;101505.56;;;12.21;83.20
69402;BME280;56589;51.992;5.924;2022-10-31T08:42:56;101501.22;;;12.20;82.96
69402;BME280;56589;51.992;5.924;2022-10-31T08:45:23;101492.31;;;12.23;83.22
69402;BME280;56589;51.992;5.924;2022-10-31T08:47:48;101496.38;;;12.28;83.46
69402;BME280;56589;51.992;5.924;2022-10-31T08:50:14;101495.91;;;12.36;83.50
69402;BME280;56589;51.992;5.924;2022-10-31T08:52:40;101483.97;;;12.44;83.07
69402;BME280;56589;51.992;5.924;2022-10-31T08:55:07;101480.88;;;12.52;82.91
69402;BME280;56589;51.992;5.924;2022-10-31T08:57:35;101489.97;;;12.61;82.98
69402;BME280;56589;51.992;5.924;2022-10-31T09:00:02;101479.84;;;12.69;82.65
69402;BME280;56589;51.992;5.924;2022-10-31T09:02:28;101478.31;;;12.79;83.18
69402;BME280;56589;51.992;5.924;2022-10-31T09:04:54;101487.13;;;12.92;82.79
69402;BME280;56589;51.992;5.924;2022-10-31T09:07:20;101485.84;;;13.00;82.22
69402;BME280;56589;51.992;5.924;2022-10-31T09:09:45;101481.03;;;13.06;82.46
69402;BME280;56589;51.992;5.924;2022-10-31T09:12:11;101480.53;;;13.14;82.24
69402;BME280;56589;51.992;5.924;2022-10-31T09:14:40;101473.72;;;13.24;81.96
69402;BME280;56589;51.992;5.924;2022-10-31T09:17:05;101473.97;;;13.34;82.17
69402;BME280;56589;51.992;5.924;2022-10-31T09:19:31;101476.09;;;13.41;81.70
69402;BME280;56589;51.992;5.924;2022-10-31T09:21:57;101476.50;;;13.49;81.21
69402;BME280;56589;51.992;5.924;2022-10-31T09:24:23;101477.78;;;13.57;81.01
69402;BME280;56589;51.992;5.924;2022-10-31T09:26:48;101487.00;;;13.64;81.31
69402;BME280;56589;51.992;5.924;2022-10-31T09:29:14;101492.59;;;13.72;80.96
69402;BME280;56589;51.992;5.924;2022-10-31T09:31:42;101492.19;;;13.78;80.74
69402;BME280;56589;51.992;5.924;2022-10-31T09:34:08;101479.66;;;13.82;80.29
69402;BME280;56589;51.992;5.924;2022-10-31T09:36:34;101472.34;;;13.85;80.44
69402;BME280;56589;51.992;5.924;2022-10-31T09:39:00;101453.56;;;13.90;80.17
69402;BME280;56589;51.992;5.924;2022-10-31T09:41:31;101425.81;;;13.97;80.22
69402;BME280;56589;51.992;5.924;2022-10-31T09:44:20;101420.94;;;14.03;80.44
69402;BME280;56589;51.992;5.924;2022-10-31T09:46:58;101436.81;;;14.16;79.83
69402;BME280;56589;51.992;5.924;2022-10-31T09:49:36;101446.09;;;14.22;79.49
69402;BME280;56589;51.992;5.924;2022-10-31T09:52:20;101450.03;;;14.29;79.78
69402;BME280;56589;51.992;5.924;2022-10-31T09:54:52;101449.81;;;14.32;79.00
69402;BME280;56589;51.992;5.924;2022-10-31T09:57:25;101448.66;;;14.36;79.26
69402;BME280;56589;51.992;5.924;2022-10-31T09:59:55;101446.44;;;14.43;78.82
69402;BME280;56589;51.992;5.924;2022-10-31T10:02:29;101440.72;;;14.49;78.95
69402;BME280;56589;51.992;5.924;2022-10-31T10:05:02;101451.16;;;14.50;78.90
69402;BME280;56589;51.992;5.924;2022-10-31T10:07:51;101451.56;;;14.57;78.56
69402;BME280;56589;51.992;5.924;2022-10-31T10:10:33;101437.13;;;14.63;78.42
69402;BME280;56589;51.992;5.924;2022-10-31T10:13:20;101439.84;;;14.61;78.34
69402;BME280;56589;51.992;5.924;2022-10-31T10:16:16;101434.69;;;14.59;78.78
69402;BME280;56589;51.992;5.924;2022-10-31T10:19:06;101443.13;;;14.65;78.66
69402;BME280;56589;51.992;5.924;2022-10-31T10:21:47;101424.72;;;14.76;78.72
69402;BME280;56589;51.992;5.924;2022-10-31T10:24:30;101404.72;;;14.84;78.57
69402;BME280;56589;51.992;5.924;2022-10-31T10:27:17;101398.25;;;14.89;78.49
69402;BME280;56589;51.992;5.924;2022-10-31T10:29:58;101395.59;;;14.89;78.10
69402;BME280;56589;51.992;5.924;2022-10-31T10:32:31;101402.69;;;14.88;78.42
69402;BME280;56589;51.992;5.924;2022-10-31T10:35:16;101409.47;;;14.92;78.37
69402;BME280;56589;51.992;5.924;2022-10-31T10:37:50;101411.03;;;14.95;78.57
69402;BME280;56589;51.992;5.924;2022-10-31T10:40:23;101408.69;;;15.03;78.42
69402;BME280;56589;51.992;5.924;2022-10-31T10:42:57;101417.00;;;15.09;78.36
69402;BME280;56589;51.992;5.924;2022-10-31T10:45:37;101404.50;;;15.11;78.00
69402;BME280;56589;51.992;5.924;2022-10-31T10:48:12;101405.34;;;15.12;78.22
69402;BME280;56589;51.992;5.924;2022-10-31T10:50:46;101409.47;;;15.16;78.19
69402;BME280;56589;51.992;5.924;2022-10-31T10:53:28;101397.81;;;15.19;77.89
69402;BME280;56589;51.992;5.924;2022-10-31T10:56:11;101379.94;;;15.22;77.87
69402;BME280;56589;51.992;5.924;2022-10-31T10:58:42;101360.19;;;15.26;77.51
69402;BME280;56589;51.992;5.924;2022-10-31T11:01:11;101356.25;;;15.32;77.58
69402;BME280;56589;51.992;5.924;2022-10-31T11:03:38;101349.09;;;15.45;77.69
69402;BME280;56589;51.992;5.924;2022-10-31T11:06:16;101355.75;;;15.62;77.26
69402;BME280;56589;51.992;5.924;2022-10-31T11:08:43;101349.97;;;15.68;77.07
69402;BME280;56589;51.992;5.924;2022-10-31T11:11:18;101349.53;;;15.74;76.13
69402;BME280;56589;51.992;5.924;2022-10-31T11:13:52;101345.09;;;15.75;76.03
69402;BME280;56589;51.992;5.924;2022-10-31T11:16:29;101330.03;;;15.75;75.48
69402;BME280;56589;51.992;5.924;2022-10-31T11:19:07;101336.94;;;15.78;75.27
69402;BME280;56589;51.992;5.924;2022-10-31T11:21:41;101328.00;;;15.79;75.04
69402;BME280;56589;51.992;5.924;2022-10-31T11:24:15;101318.03;;;15.82;75.50
69402;BME280;56589;51.992;5.924;2022-10-31T11:26:44;101312.50;;;15.85;74.73
69402;BME280;56589;51.992;5.924;2022-10-31T11:29:15;101306.13;;;15.88;75.13
69402;BME280;56589;51.992;5.924;2022-10-31T11:31:44;101293.72;;;15.88;74.23
69402;BME280;56589;51.992;5.924;2022-10-31T11:34:16;101291.31;;;15.85;74.87
69402;BME280;56589;51.992;5.924;2022-10-31T11:36:52;101295.06;;;15.83;74.31
69402;BME280;56589;51.992;5.924;2022-10-31T11:39:22;101288.16;;;15.80;74.05
69402;BME280;56589;51.992;5.924;2022-10-31T11:41:51;101282.03;;;15.80;74.64
69402;BME280;56589;51.992;5.924;2022-10-31T11:44:21;101270.84;;;15.76;74.25
69402;BME280;56589;51.992;5.924;2022-10-31T11:46:52;101264.72;;;15.76;74.21
69402;BME280;56589;51.992;5.924;2022-10-31T11:49:27;101260.13;;;15.78;74.32
69402;BME280;56589;51.992;5.924;2022-10-31T11:52:01;101264.13;;;15.83;74.44
69402;BME280;56589;51.992;5.924;2022-10-31T11:54:36;101255.44;;;15.81;74.37
69402;BME280;56589;51.992;5.924;2022-10-31T11:57:22;101257.97;;;15.83;74.36
69402;BME280;56589;51.992;5.924;2022-10-31T11:59:51;101260.84;;;15.80;74.76
69402;BME280;56589;51.992;5.924;2022-10-31T12:02:19;101268.56;;;15.83;74.61
69402;BME280;56589;51.992;5.924;2022-10-31T12:04:51;101268.44;;;15.84;74.21
69402;BME280;56589;51.992;5.924;2022-10-31T12:07:30;101259.19;;;15.90;74.42
69402;BME280;56589;51.992;5.924;2022-10-31T12:09:57;101241.84;;;15.97;74.50
69402;BME280;56589;51.992;5.924;2022-10-31T12:12:40;101232.56;;;16.03;74.26
69402;BME280;56589;51.992;5.924;2022-10-31T12:15:26;101234.00;;;16.07;74.39
69402;BME280;56589;51.992;5.924;2022-10-31T12:18:11;101223.03;;;16.11;74.08
69402;BME280;56589;51.992;5.924;2022-10-31T12:20:57;101222.28;;;16.21;74.52
69402;BME280;56589;51.992;5.924;2022-10-31T12:23:44;101206.59;;;16.29;73.93
69402;BME280;56589;51.992;5.924;2022-10-31T12:26:26;101199.84;;;16.36;73.77
69402;BME280;56589;51.992;5.924;2022-10-31T12:29:17;101197.44;;;16.33;73.40
69402;BME280;56589;51.992;5.924;2022-10-31T12:31:58;101199.50;;;16.29;73.00
69402;BME280;56589;51.992;5.924;2022-10-31T12:34:56;101195.31;;;16.27;73.06
69402;BME280;56589;51.992;5.924;2022-10-31T12:37:52;101186.75;;;16.23;73.27
69402;BME280;56589;51.992;5.924;2022-10-31T12:40:44;101172.66;;;16.23;73.45
69402;BME280;56589;51.992;5.924;2022-10-31T12:43:35;101159.28;;;16.24;73.68
69402;BME280;56589;51.992;5.924;2022-10-31T12:46:17;101160.13;;;16.25;73.40
69402;BME280;56589;51.992;5.924;2022-10-31T12:49:12;101145.94;;;16.26;73.82
69402;BME280;56589;51.992;5.924;2022-10-31T12:51:53;101141.47;;;16.26;73.90
69402;BME280;56589;51.992;5.924;2022-10-31T12:54:43;101134.22;;;16.28;73.84
69402;BME280;56589;51.992;5.924;2022-10-31T12:57:29;101125.91;;;16.33;73.84
69402;BME280;56589;51.992;5.924;2022-10-31T13:00:02;101122.47;;;16.42;73.69
69402;BME280;56589;51.992;5.924;2022-10-31T13:02:39;101114.84;;;16.49;73.72
69402;BME280;56589;51.992;5.924;2022-10-31T13:05:16;101109.16;;;16.53;74.08
69402;BME280;56589;51.992;5.924;2022-10-31T13:07:50;101092.03;;;16.57;73.02
69402;BME280;56589;51.992;5.924;2022-10-31T13:10:23;101089.41;;;16.57;73.54
69402;BME280;56589;51.992;5.924;2022-10-31T13:13:02;101088.59;;;16.66;73.31
69402;BME280;56589;51.992;5.924;2022-10-31T13:15:38;101084.94;;;16.79;73.08
69402;BME280;56589;51.992;5.924;2022-10-31T13:18:19;101075.47;;;16.86;72.34